Nearby METAR Reports

 

KHOT - Hot Springs, Arkansas, USA
Distance from station: W 8mi, 14km
Updated: 07/31/2021 4:53pm
Clear
Clear
 Wind from W
Wind: W 6 mph , 9 km/h
Temperature: 99°F , 37°C
Heat Index: 109°F , 43°C
Dew Point: 72°F , 22°C
Humidity: 42%
Barometer: 29.97 inHg , 1014.9 hPa
Clouds: Clear
Visibility: 10 miles , 16 km
2021/07/31 21:53 KHOT 312153Z AUTO 26005KT 10SM CLR 37/22 A2997 RMK AO2 RAE2054 SLP139 P0000 T03720217
KMWT - Mount Ida, Arkansas, USA
Distance from station: W 36mi, 58km
Updated: 07/31/2021 4:53pm
Few Clouds
Few Clouds
 Wind from calm
Wind: Calm
Temperature: 97°F , 36°C
Heat Index: 108°F , 42°C
Dew Point: 73°F , 23°C
Humidity: 47%
Barometer: 29.98 inHg , 1015.2 hPa
Clouds: Few Clouds
Visibility: 10 miles , 16 km
Cloud details: Few Clouds 5500 ft
2021/07/31 21:53 KMWT 312153Z AUTO 00000KT 10SM FEW055 36/23 A2998 RMK AO2 SLP137 T03560233
 
KLIT - Little Rock, Arkansas, USA
Distance from station: ENE 45mi, 73km
Updated: 07/31/2021 4:53pm
Mostly cloudy
Mostly cloudy
 Wind from SSE
Wind: SSE 8 mph , 13 km/h
Temperature: 97°F , 36°C
Heat Index: 108°F , 42°C
Dew Point: 73°F , 23°C
Humidity: 47%
Barometer: 29.96 inHg , 1014.6 hPa
Clouds: Mostly cloudy
Visibility: 10 miles , 16 km
Cloud details: Mostly cloudy 6000 ft
Mostly cloudy 25000 ft
2021/07/31 21:53 KLIT 312153Z 16007KT 10SM BKN060TCU BKN250 36/23 A2996 RMK AO2 SLP143 TCU S T03560228 $
KLRF - Little Rock Afb, Arkansas, USA
Distance from station: NE 56mi, 89km
Updated: 07/31/2021 4:56pm
Clear
Clear
 Wind from W
Wind: W 6 mph , 9 km/h
Temperature: 99°F , 37°C
Dew Point: 68°F , 20°C
Humidity: 37%
Barometer: 29.95 inHg , 1014.2 hPa
Clouds: Clear
Visibility: 10 miles , 16 km
2021/07/31 21:56 KLRF 312156Z AUTO 26005KT 10SM CLR 37/20 A2995 RMK AO2 SLP141 T03730201